createdAt,value
2019-01-05T00:01:37.195Z,103049.30
2019-01-05T00:04:27.106Z,103043.56
2019-01-05T00:07:19.690Z,103043.56
2019-01-05T00:10:08.963Z,103048.77
2019-01-05T00:13:08.650Z,103041.55
2019-01-05T00:15:57.637Z,103047.66
2019-01-05T00:18:47.654Z,103047.66
2019-01-05T00:21:38.360Z,103046.87
2019-01-05T00:24:26.299Z,103040.53
2019-01-05T00:27:28.252Z,103039.41
2019-01-05T00:30:36.335Z,103036.50
2019-01-05T00:33:43.865Z,103028.63
2019-01-05T00:36:58.897Z,103031.30
2019-01-05T00:40:07.743Z,103025.84
2019-01-05T00:42:57.586Z,103017.59
2019-01-05T00:45:51.277Z,103012.67
2019-01-05T00:48:55.245Z,103014.22
2019-01-05T00:51:59.329Z,103011.67
2019-01-05T00:54:49.350Z,103012.17
2019-01-05T00:57:55.966Z,103012.32
2019-01-05T01:00:39.260Z,103018.79
2019-01-05T01:03:43.808Z,103017.58
2019-01-05T01:06:52.116Z,103010.07
2019-01-05T01:09:43.278Z,103009.08
2019-01-05T01:12:31.281Z,103012.25
2019-01-05T01:15:20.913Z,103011.73
2019-01-05T01:18:12.057Z,103011.73
2019-01-05T01:21:01.313Z,103015.81
2019-01-05T01:24:06.065Z,103015.07
2019-01-05T01:27:04.838Z,103015.07
2019-01-05T01:30:12.335Z,103012.53
2019-01-05T01:33:01.828Z,103004.38
2019-01-05T01:35:58.733Z,103004.91
2019-01-05T01:38:49.747Z,103004.79
2019-01-05T01:41:48.350Z,102998.03
2019-01-05T01:44:36.834Z,102997.54
2019-01-05T01:47:39.957Z,102998.03
2019-01-05T01:50:35.813Z,102993.84
2019-01-05T01:53:30.093Z,102992.95
2019-01-05T01:56:33.972Z,102985.33
2019-01-05T01:59:46.479Z,102983.31
2019-01-05T02:02:29.387Z,102972.41
2019-01-05T02:05:18.476Z,102972.89
2019-01-05T02:08:21.016Z,102958.65
2019-01-05T02:11:21.061Z,102958.65
2019-01-05T02:14:15.183Z,102960.59
2019-01-05T02:17:11.845Z,102957.42
2019-01-05T02:20:32.293Z,102961.23
2019-01-05T02:24:26.366Z,102958.06
2019-01-05T02:28:01.833Z,102953.47
2019-01-05T02:31:18.563Z,102947.27
2019-01-05T02:35:07.542Z,102940.03
2019-01-05T02:38:26.829Z,102934.20
2019-01-05T02:42:01.108Z,102925.05
2019-01-05T02:45:27.229Z,102919.70
2019-01-05T02:48:45.534Z,102916.94
2019-01-05T02:52:22.680Z,102907.67
2019-01-05T02:56:16.191Z,102908.31
2019-01-05T02:59:55.233Z,102905.62
2019-01-05T03:03:20.852Z,102898.25
2019-01-05T03:06:44.093Z,102891.94
2019-01-05T03:10:23.159Z,102898.78
2019-01-05T03:13:41.396Z,102895.00
2019-01-05T03:17:22.885Z,102895.38
2019-01-05T03:20:58.513Z,102894.36
2019-01-05T03:24:28.880Z,102892.68
2019-01-05T03:28:08.404Z,102873.13
2019-01-05T03:31:40.559Z,102865.75
2019-01-05T03:35:17.285Z,102868.55
2019-01-05T03:38:58.026Z,102856.09
2019-01-05T03:42:28.967Z,102847.05
2019-01-05T03:46:01.668Z,102851.48
2019-01-05T03:49:44.712Z,102848.45
2019-01-05T03:53:21.300Z,102848.43
2019-01-05T03:56:46.583Z,102848.69
2019-01-05T04:00:23.472Z,102853.53
2019-01-05T04:03:51.570Z,102835.98
2019-01-05T04:07:07.164Z,102835.98
2019-01-05T04:10:51.549Z,102822.99
2019-01-05T04:14:18.681Z,102822.62
2019-01-05T04:17:57.574Z,102812.55
2019-01-05T04:21:23.394Z,102807.71
2019-01-05T04:24:51.884Z,102805.94
2019-01-05T04:28:25.527Z,102796.77
2019-01-05T04:31:57.280Z,102811.76
2019-01-05T04:35:03.745Z,102803.10
2019-01-05T04:38:48.124Z,102801.59
2019-01-05T04:42:04.267Z,102791.52
2019-01-05T04:45:46.743Z,102788.06
2019-01-05T04:49:19.351Z,102783.63
2019-01-05T04:52:32.904Z,102778.67
2019-01-05T04:56:12.755Z,102764.16
2019-01-05T04:59:44.987Z,102759.31
2019-01-05T05:03:01.535Z,102770.53
2019-01-05T05:06:41.275Z,102769.23
2019-01-05T05:10:16.210Z,102769.23
2019-01-05T05:13:53.535Z,102765.28
2019-01-05T05:17:29.968Z,102767.03
2019-01-05T05:21:10.123Z,102760.02
2019-01-05T05:25:10.882Z,102760.64
2019-01-05T05:28:44.189Z,102750.59
2019-01-05T05:32:15.034Z,102752.11
2019-01-05T05:35:48.645Z,102750.56
2019-01-05T05:39:18.193Z,102746.59
2019-01-05T05:42:51.857Z,102754.86
2019-01-05T05:46:42.992Z,102746.70
2019-01-05T05:50:29.235Z,102745.16
2019-01-05T05:53:52.638Z,102753.03
2019-01-05T05:57:26.585Z,102739.13
2019-01-05T06:01:05.798Z,102755.02
2019-01-05T06:04:38.483Z,102756.30
2019-01-05T06:08:16.244Z,102756.30
2019-01-05T06:11:52.795Z,102744.04
2019-01-05T06:15:46.281Z,102740.45
2019-01-05T06:19:10.949Z,102735.36
2019-01-05T06:22:22.218Z,102730.27
2019-01-05T06:25:51.563Z,102730.27
2019-01-05T06:29:25.747Z,102737.39
2019-01-05T06:32:49.336Z,102740.83
2019-01-05T06:36:32.586Z,102736.59
2019-01-05T06:40:00.241Z,102744.66
2019-01-05T06:44:00.839Z,102744.23
2019-01-05T06:47:35.837Z,102733.05
2019-01-05T06:51:08.856Z,102752.29
2019-01-05T06:54:59.822Z,102739.04
2019-01-05T06:58:34.775Z,102763.62
2019-01-05T07:02:05.856Z,102772.30
2019-01-05T07:05:27.647Z,102780.31
2019-01-05T07:08:49.114Z,102783.00
2019-01-05T07:12:19.796Z,102778.94
2019-01-05T07:16:08.414Z,102773.71
2019-01-05T07:19:36.816Z,102784.55
2019-01-05T07:23:24.318Z,102785.72
2019-01-05T07:27:19.260Z,102786.00
2019-01-05T07:30:49.431Z,102783.31
2019-01-05T07:34:11.390Z,102785.86
2019-01-05T07:37:50.606Z,102788.79
2019-01-05T07:41:13.973Z,102781.94
2019-01-05T07:44:52.815Z,102793.78
2019-01-05T07:48:46.920Z,102798.08
2019-01-05T07:52:44.946Z,102804.07
2019-01-05T07:56:22.070Z,102807.52
2019-01-05T08:00:09.048Z,102810.58
2019-01-05T08:03:33.944Z,102816.94
2019-01-05T08:07:09.409Z,102814.64
2019-01-05T08:10:34.588Z,102814.64
2019-01-05T08:14:21.079Z,102804.83
2019-01-05T08:18:04.229Z,102807.48
2019-01-05T08:22:16.881Z,102807.23
2019-01-05T08:25:52.156Z,102808.51
2019-01-05T08:29:09.943Z,102813.19
2019-01-05T08:33:07.480Z,102808.99
2019-01-05T08:36:37.376Z,102810.41
2019-01-05T08:40:18.039Z,102815.60
2019-01-05T08:44:00.104Z,102824.24
2019-01-05T08:47:24.084Z,102819.66
2019-01-05T08:50:39.701Z,102826.03
2019-01-05T08:54:01.274Z,102831.64
2019-01-05T08:57:33.842Z,102825.52
2019-01-05T09:00:56.855Z,102825.28
2019-01-05T09:04:43.619Z,102819.80
2019-01-05T09:08:34.808Z,102827.55
2019-01-05T09:12:17.973Z,102821.80
2019-01-05T09:15:48.605Z,102824.48
2019-01-05T09:19:52.473Z,102818.83
2019-01-05T09:23:53.053Z,102818.08
2019-01-05T09:27:25.511Z,102823.45
2019-01-05T09:30:51.072Z,102818.83
2019-01-05T09:34:26.693Z,102827.38
2019-01-05T09:37:55.981Z,102826.48
2019-01-05T09:41:24.802Z,102826.99
2019-01-05T09:44:51.070Z,102830.02
2019-01-05T09:48:32.476Z,102821.86
2019-01-05T09:52:21.294Z,102817.00
2019-01-05T09:55:50.702Z,102826.44
2019-01-05T09:59:23.197Z,102827.67
2019-01-05T10:02:39.495Z,102823.05
2019-01-05T10:06:21.455Z,102827.87
2019-01-05T10:10:00.693Z,102812.58
2019-01-05T10:13:42.386Z,102813.09
2019-01-05T10:17:42.865Z,102819.33
2019-01-05T10:21:19.765Z,102811.26
2019-01-05T10:25:24.495Z,102819.37
2019-01-05T10:29:03.259Z,102813.28
2019-01-05T10:32:24.300Z,102822.96
2019-01-05T10:35:57.932Z,102811.45
2019-01-05T10:39:55.814Z,102807.24
2019-01-05T10:43:55.861Z,102811.67
2019-01-05T10:47:36.051Z,102798.92
2019-01-05T10:51:01.087Z,102790.66
2019-01-05T10:54:44.730Z,102792.55
2019-01-05T10:58:11.921Z,102789.15
2019-01-05T11:01:46.575Z,102784.05
2019-01-05T11:05:32.574Z,102789.44
2019-01-05T11:09:13.378Z,102780.64
2019-01-05T11:12:46.481Z,102785.56
2019-01-05T11:16:32.549Z,102781.48
2019-01-05T11:20:35.917Z,102763.62
2019-01-05T11:24:00.805Z,102763.62
2019-01-05T11:27:41.484Z,102773.27
2019-01-05T11:31:19.777Z,102759.83
2019-01-05T11:34:49.433Z,102762.89
2019-01-05T11:38:11.284Z,102768.07
2019-01-05T11:41:39.352Z,102765.52
2019-01-05T11:45:06.618Z,102758.58
2019-01-05T11:48:36.177Z,102758.48
2019-01-05T11:52:14.929Z,102758.19
2019-01-05T11:55:47.053Z,102751.30
2019-01-05T11:59:11.770Z,102753.02
2019-01-05T12:02:44.206Z,102749.83
2019-01-05T12:06:32.576Z,102743.45
2019-01-05T12:10:03.396Z,102751.08
2019-01-05T12:13:38.495Z,102736.53
2019-01-05T12:17:16.876Z,102742.91
2019-01-05T12:20:52.469Z,102740.14
2019-01-05T12:24:16.903Z,102737.70
2019-01-05T12:27:51.995Z,102740.89
2019-01-05T12:31:28.512Z,102736.45
2019-01-05T12:35:20.055Z,102736.69
2019-01-05T12:38:53.369Z,102744.93
2019-01-05T12:42:44.851Z,102740.34
2019-01-05T12:46:20.755Z,102739.45
2019-01-05T12:49:58.475Z,102735.58
2019-01-05T12:53:33.472Z,102734.55
2019-01-05T12:57:26.615Z,102742.48
2019-01-05T13:01:05.493Z,102738.81
2019-01-05T13:04:38.510Z,102730.70
2019-01-05T13:08:22.197Z,102730.70
2019-01-05T13:11:44.003Z,102737.21
2019-01-05T13:15:43.344Z,102738.87
2019-01-05T13:19:08.291Z,102737.13
2019-01-05T13:22:35.070Z,102731.13
2019-01-05T13:26:11.728Z,102734.00
2019-01-05T13:29:35.759Z,102740.93
2019-01-05T13:33:15.459Z,102741.27
2019-01-05T13:37:04.717Z,102739.99
2019-01-05T13:40:29.900Z,102747.41
2019-01-05T13:44:00.549Z,102752.28
2019-01-05T13:47:36.336Z,102756.16
2019-01-05T13:51:26.894Z,102754.27
2019-01-05T13:54:16.415Z,102756.16
2019-01-05T13:57:07.682Z,102758.09
2019-01-05T13:59:57.308Z,102761.93
2019-01-05T14:02:45.960Z,102769.48
2019-01-05T14:05:39.228Z,102771.03
2019-01-05T14:08:40.430Z,102766.31
2019-01-05T14:11:32.839Z,102771.52
2019-01-05T14:14:22.269Z,102767.73
2019-01-05T14:17:25.620Z,102779.58
2019-01-05T14:20:30.875Z,102782.94
2019-01-05T14:23:18.383Z,102787.42
2019-01-05T14:26:16.896Z,102786.94
2019-01-05T14:29:04.919Z,102779.30
2019-01-05T14:31:53.474Z,102786.33
2019-01-05T14:34:55.540Z,102799.86
2019-01-05T14:37:54.464Z,102799.45
2019-01-05T14:40:53.885Z,102809.44
2019-01-05T14:43:53.293Z,102810.95
2019-01-05T14:46:55.694Z,102806.23
2019-01-05T14:49:54.034Z,102813.88
2019-01-05T14:52:43.522Z,102819.11
2019-01-05T14:55:33.070Z,102819.87
2019-01-05T14:58:22.442Z,102824.06
2019-01-05T15:01:19.086Z,102826.89
2019-01-05T15:04:11.174Z,102827.79
2019-01-05T15:07:15.205Z,102827.55
2019-01-05T15:09:58.542Z,102827.30
2019-01-05T15:12:46.559Z,102822.21
2019-01-05T15:15:34.165Z,102827.30
2019-01-05T15:18:20.782Z,102832.16
2019-01-05T15:21:09.653Z,102831.92
2019-01-05T15:24:02.259Z,102823.28
2019-01-05T15:26:50.730Z,102830.67
2019-01-05T15:29:38.017Z,102823.17
2019-01-05T15:32:40.050Z,102823.55
2019-01-05T15:35:34.522Z,102826.37
2019-01-05T15:38:24.336Z,102816.94
2019-01-05T15:41:29.450Z,102827.41
2019-01-05T15:44:21.560Z,102824.75
2019-01-05T15:47:05.623Z,102829.70
2019-01-05T15:50:10.663Z,102829.98
2019-01-05T15:53:00.362Z,102826.53
2019-01-05T15:55:46.540Z,102821.06
2019-01-05T15:58:38.994Z,102824.13
2019-01-05T16:01:31.155Z,102832.00
2019-01-05T16:04:27.264Z,102832.00
2019-01-05T16:07:13.451Z,102826.43
2019-01-05T16:10:18.883Z,102830.36
2019-01-05T16:13:09.588Z,102830.66
2019-01-05T16:16:08.280Z,102830.66
2019-01-05T16:18:57.816Z,102827.94
2019-01-05T16:21:45.966Z,102834.58
2019-01-05T16:24:31.461Z,102840.19
2019-01-05T16:27:32.430Z,102840.56
2019-01-05T16:30:19.187Z,102852.12
2019-01-05T16:33:11.938Z,102841.46
2019-01-05T16:35:57.692Z,102848.20
2019-01-05T16:39:05.456Z,102850.75
2019-01-05T16:41:49.577Z,102842.59
2019-01-05T16:44:58.091Z,102848.86
2019-01-05T16:47:46.430Z,102849.61
2019-01-05T16:50:34.836Z,102846.69
2019-01-05T16:53:23.792Z,102848.34
2019-01-05T16:56:22.465Z,102851.27
2019-01-05T16:59:20.243Z,102846.17
2019-01-05T17:02:27.405Z,102847.44
2019-01-05T17:05:15.464Z,102848.86
2019-01-05T17:08:07.661Z,102848.86
2019-01-05T17:10:53.288Z,102855.22
2019-01-05T17:13:55.317Z,102854.97
2019-01-05T17:16:50.565Z,102853.70
2019-01-05T17:19:40.249Z,102855.49
2019-01-05T17:22:28.404Z,102854.97
2019-01-05T17:25:16.547Z,102857.52
2019-01-05T17:28:23.856Z,102865.16
2019-01-05T17:31:28.787Z,102862.09
2019-01-05T17:34:16.969Z,102866.95
2019-01-05T17:37:06.353Z,102864.41
2019-01-05T17:39:55.140Z,102865.16
2019-01-05T17:42:44.517Z,102860.34
2019-01-05T17:45:45.314Z,102859.06
2019-01-05T17:48:34.733Z,102862.47
2019-01-05T17:51:24.566Z,102865.16
2019-01-05T17:54:14.133Z,102856.52
2019-01-05T17:57:15.815Z,102852.19
2019-01-05T18:00:11.143Z,102858.27
2019-01-05T18:03:00.706Z,102864.64
2019-01-05T18:05:56.144Z,102847.20
2019-01-05T18:08:44.110Z,102852.94
2019-01-05T18:11:48.383Z,102853.97
2019-01-05T18:14:38.290Z,102850.16
2019-01-05T18:17:28.792Z,102850.77
2019-01-05T18:20:19.883Z,102852.19
2019-01-05T18:23:13.521Z,102854.59
2019-01-05T18:26:01.814Z,102854.86
2019-01-05T18:28:50.493Z,102855.23
2019-01-05T18:31:49.189Z,102847.73
2019-01-05T18:34:40.032Z,102853.20
2019-01-05T18:37:41.405Z,102860.33
2019-01-05T18:40:29.370Z,102861.22
2019-01-05T18:43:25.032Z,102860.58
2019-01-05T18:46:26.846Z,102859.44
2019-01-05T18:49:15.260Z,102855.75
2019-01-05T18:52:24.865Z,102864.66
2019-01-05T18:55:17.235Z,102866.69
2019-01-05T18:58:05.567Z,102854.38
2019-01-05T19:00:53.989Z,102857.30
2019-01-05T19:03:43.068Z,102858.56
2019-01-05T19:06:34.071Z,102857.78
2019-01-05T19:09:27.594Z,102853.48
2019-01-05T19:12:15.402Z,102852.58
2019-01-05T19:15:10.444Z,102851.31
2019-01-05T19:17:58.307Z,102856.78
2019-01-05T19:20:51.077Z,102852.20
2019-01-05T19:23:40.715Z,102855.50
2019-01-05T19:26:33.879Z,102863.13
2019-01-05T19:29:22.054Z,102865.04
2019-01-05T19:32:12.237Z,102870.02
2019-01-05T19:35:07.884Z,102864.94
2019-01-05T19:38:05.082Z,102866.31
2019-01-05T19:40:57.077Z,102880.19
2019-01-05T19:43:58.164Z,102873.82
2019-01-05T19:46:56.632Z,102871.55
2019-01-05T19:49:45.331Z,102865.42
2019-01-05T19:52:51.685Z,102876.50
2019-01-05T19:55:43.920Z,102878.14
2019-01-05T19:58:45.273Z,102878.66
2019-01-05T20:01:34.554Z,102876.50
2019-01-05T20:04:22.754Z,102878.66
2019-01-05T20:07:22.742Z,102883.76
2019-01-05T20:10:11.051Z,102881.48
2019-01-05T20:12:59.758Z,102878.94
2019-01-05T20:15:58.500Z,102883.23
2019-01-05T20:18:47.852Z,102881.73
2019-01-05T20:21:35.903Z,102879.94
2019-01-05T20:24:30.334Z,102885.30
2019-01-05T20:27:23.848Z,102889.12
2019-01-05T20:30:31.100Z,102886.30
2019-01-05T20:33:29.861Z,102895.21
2019-01-05T20:36:37.528Z,102897.87
2019-01-05T20:39:26.594Z,102897.00
2019-01-05T20:42:14.830Z,102899.41
2019-01-05T20:44:58.587Z,102902.95
2019-01-05T20:47:51.810Z,102907.19
2019-01-05T20:50:56.057Z,102895.97
2019-01-05T20:53:48.704Z,102901.58
2019-01-05T20:56:36.828Z,102899.03
2019-01-05T20:59:30.672Z,102900.20
2019-01-05T21:02:38.656Z,102902.59
2019-01-05T21:05:31.381Z,102899.67
2019-01-05T21:08:13.795Z,102908.96
2019-01-05T21:11:09.403Z,102905.14
2019-01-05T21:14:03.914Z,102903.35
2019-01-05T21:16:51.798Z,102896.50
2019-01-05T21:19:50.422Z,102896.12
2019-01-05T21:22:38.445Z,102902.87
2019-01-05T21:25:28.145Z,102898.27
2019-01-05T21:28:21.003Z,102900.80
2019-01-05T21:31:09.365Z,102902.87
2019-01-05T21:34:02.301Z,102894.71
2019-01-05T21:36:58.250Z,102894.71
2019-01-05T21:39:50.433Z,102893.69
2019-01-05T21:42:41.018Z,102904.39
2019-01-05T21:45:26.359Z,102895.34
2019-01-05T21:48:34.088Z,102896.98
2019-01-05T21:51:22.356Z,102886.05
2019-01-05T21:54:27.191Z,102884.91
2019-01-05T21:57:25.340Z,102881.72
2019-01-05T22:00:13.526Z,102889.88
2019-01-05T22:03:01.940Z,102879.17
2019-01-05T22:05:54.704Z,102887.83
2019-01-05T22:08:49.935Z,102887.45
2019-01-05T22:11:46.659Z,102889.52
2019-01-05T22:14:34.773Z,102878.94
2019-01-05T22:17:42.504Z,102878.94
2019-01-05T22:20:32.279Z,102875.64
2019-01-05T22:23:20.662Z,102876.77
2019-01-05T22:26:10.308Z,102883.03
2019-01-05T22:29:00.993Z,102881.75
2019-01-05T22:31:50.491Z,102879.30
2019-01-05T22:34:38.623Z,102878.41
2019-01-05T22:37:42.696Z,102876.50
2019-01-05T22:40:31.301Z,102865.97
2019-01-05T22:43:23.227Z,102865.97
2019-01-05T22:46:21.897Z,102860.50
2019-01-05T22:49:26.745Z,102865.45
2019-01-05T22:52:24.203Z,102864.31
2019-01-05T22:55:15.079Z,102869.53
2019-01-05T22:58:10.326Z,102866.47
2019-01-05T23:01:19.830Z,102860.11
2019-01-05T23:04:15.007Z,102871.83
2019-01-05T23:07:16.099Z,102875.13
2019-01-05T23:10:07.235Z,102877.66
2019-01-05T23:12:56.844Z,102886.08
2019-01-05T23:15:58.617Z,102871.57
2019-01-05T23:18:59.784Z,102879.84
2019-01-05T23:21:54.197Z,102877.82
2019-01-05T23:24:49.873Z,102887.10
2019-01-05T23:27:46.757Z,102893.09
2019-01-05T23:30:39.646Z,102895.48
2019-01-05T23:33:27.715Z,102897.77
2019-01-05T23:36:36.808Z,102900.58
2019-01-05T23:39:30.293Z,102898.41
2019-01-05T23:42:19.621Z,102900.95
2019-01-05T23:45:06.824Z,102894.59
2019-01-05T23:48:08.498Z,102902.64
2019-01-05T23:51:16.485Z,102907.20
2019-01-05T23:54:04.504Z,102897.55
2019-01-05T23:57:13.288Z,102901.73
